SILO ALERT LOG


Silo ID Alert Type Alert Message Silo Type Points Depth (mm) Strength Temperature (°C) Humidity (%) Height (mm) Volume (㎥) Weight (t) Flag Time
WJWJR01 Humidity 습도센서 측정값이 80% 초과 70 7632 2066 15.6 82.1 7 0.898 0.568 0 2026-05-21 05:25:59.000
WJWJR01 Humidity 습도센서 측정값이 80% 초과 70 7633 2074 15.6 82 6 0.719 0.454 0 2026-05-21 04:25:54.000
WJWJR01 Humidity 습도센서 측정값이 80% 초과 70 7636 2073 15.6 81.9 3 0.377 0.238 0 2026-05-21 03:25:55.000
WJWJR01 Humidity 습도센서 측정값이 80% 초과 71 7631 2063 15.7 81.7 8 0.933 0.59 0 2026-05-21 02:25:57.000
WJWJR01 Humidity 습도센서 측정값이 80% 초과 70 7634 2069 15.7 81.4 5 0.593 0.375 0 2026-05-21 01:25:53.000
WJWJR01 Humidity 습도센서 측정값이 80% 초과 71 7634 2056 15.8 81.2 5 0.636 0.402 0 2026-05-21 00:25:56.000
WJWJR01 Humidity 습도센서 측정값이 80% 초과 70 7632 2058 15.9 80.7 7 0.903 0.571 0 2026-05-20 23:25:54.000
WJWJR01 Humidity 습도센서 측정값이 80% 초과 71 7636 2065 16 80.3 3 0.356 0.225 0 2026-05-20 22:25:55.000
WJWJR05 Humidity 습도센서 측정값이 80% 초과 66 7721 2004 17.7 84.9 8 0.965 0.61 0 2026-05-13 10:26:10.000
WJWJR01 Humidity 습도센서 측정값이 80% 초과 71 7629 2050 18.5 81.9 10 1.189 0.752 0 2026-05-13 10:25:53.000
WJWJR05 Humidity 습도센서 측정값이 80% 초과 67 7712 2013 16.6 83.8 17 1.942 1.228 0 2026-05-13 09:26:18.000
WJWJR01 Humidity 습도센서 측정값이 80% 초과 70 7642 2069 16.3 82 -2 -0.306 0 0 2026-05-13 09:25:50.000
WJWJR05 Humidity 습도센서 측정값이 80% 초과 67 7713 2029 19.5 82.9 16 1.855 1.172 0 2026-05-12 11:26:14.000
WJWJR01 Humidity 습도센서 측정값이 80% 초과 70 7630 2029 20.2 80.8 9 1.062 0.672 0 2026-05-12 11:25:52.000
WJWJR05 Humidity 습도센서 측정값이 80% 초과 67 7741 1988 17.9 84.9 -11 -1.293 0 0 2026-05-12 10:26:12.000
WJWJR01 Humidity 습도센서 측정값이 80% 초과 70 7634 2084 17.9 84.4 5 0.573 0.362 0 2026-05-12 10:25:54.000
WJWJR05 Humidity 습도센서 측정값이 80% 초과 67 7715 1994 16.7 82.2 14 1.659 1.049 0 2026-05-12 09:26:14.000
WJWJR01 Humidity 습도센서 측정값이 80% 초과 69 7636 2079 16.4 87.5 3 0.345 0.218 0 2026-05-12 09:25:55.000
WJWJR01 Humidity 습도센서 측정값이 80% 초과 69 7637 2050 15.7 84.5 2 0.262 0.165 0 2026-05-12 08:25:52.000
WJWJR01 Humidity 습도센서 측정값이 80% 초과 70 7630 2070 15.4 80.8 9 1.031 0.652 0 2026-05-12 07:25:51.000

[첫 페이지] [62] [63] [64] [65] 66 마지막 페이지